KAEX/AEX METAR and TAF weather

Enter ICAO airport designator
Station Type Date Time Source
KAEX METAR 2019/12/12 11:53 UTC NOAA

KAEX 121153Z 00000KT 10SM CLR M01/M02 A3035 RMK AO2 SLP282 T10061022 10028 21017 56011


Station Type Date Time Source
KAEX Decoded METAR 2019/12/12 11:53 UTC NOAA

ALEXANDRIA INTERNATIONAL AIRPORT, LA, United States (KAEX) 31-33N 092-56W 27M
Dec 12, 2019 - 06:53 AM EST / 2019.12.12 1153 UTC
Wind: Calm:0
Visibility: 10 mile(s):0
Sky conditions: clear
Temperature: 30.9 F (-0.6 C)
Dew Point: 28.0 F (-2.2 C)
Relative Humidity: 88%
Pressure (altimeter): 30.35 in. Hg (1027 hPa)
Pressure tendency: 0.03 inches (1.1 hPa) lower than three hours ago
ob: KAEX 121153Z 00000KT 10SM CLR M01/M02 A3035 RMK AO2 SLP282 T10061022 10028 21017 56011
cycle: 12

Station Type Date Time Source
KAEX TAF 2019/12/12 12:39 UTC NOAA

TAF KAEX 121137Z 1212/1312 VRB05KT P6SM SCT250
FM122100 VRB05KT P6SM SCT080 SCT250
TEMPO 1308/1312 5SM BR

Example: see airport list